AIRPORT_AIRPORT_METAR
METAR FOR LFGA
ADDS - METARS form results

(1905 UTC 25 September 2021)
Data provider http://aviationweather.gov/metar/data/
 
METAR text: LFGA 251900Z AUTO VRB03KT CAVOK 21/16 Q1016
Conditions at: LFGA (COLMAR HOUSSEN , FR) observed 1900 UTC 25 September 2021
Temperature: 21.0°C (70°F)
Dewpoint: 16.0°C (61°F) [RH = 73%]
Pressure (altimeter): 30.00 inches Hg (1016.0 mb)
Winds: variable direction winds at 3 MPH (3 knots; 1.5 m/s)
Visibility: 6 or more miles (10+ km)
Ceiling: ceiling and visibility are OK
Clouds: unknown
Weather: no significant weather observed at this time

METAR text: LFGA 251830Z AUTO 00000KT 9999 ///CB 22/16 Q1016
Conditions at: LFGA (COLMAR HOUSSEN , FR) observed 1830 UTC 25 September 2021
Temperature: 22.0°C (72°F)
Dewpoint: 16.0°C (61°F) [RH = 69%]
Pressure (altimeter): 30.00 inches Hg (1016.0 mb)
Winds: calm
Visibility: 6 or more miles (10+ km)
Ceiling: unknown
Clouds: missing
Weather: no significant weather observed at this time

 AIRPORT_AIRPORT_MAP

 AIRPORT_RUNWAY_INFO
AIRPORT_RUNWAY 01 AIRPORT_RUNWAY_LENGTH 5282 ft AIRPORT_RUNWAY_WIDTH 98 ft
AIRPORT_RUNWAY_ELEVATION 627 ft AIRPORT_RUNWAY_THRESHOLD 689 ft AIRPORT_RUNWAY_HEADING 11
AIRPORT_RUNWAY 19 AIRPORT_RUNWAY_LENGTH 5282 ft AIRPORT_RUNWAY_WIDTH 98 ft
AIRPORT_RUNWAY_ELEVATION 612 ft AIRPORT_RUNWAY_THRESHOLD 0 ft AIRPORT_RUNWAY_HEADING 191

 AIRPORT_AIRPORT_FREQUENCIES
AIRPORT_AIRPORT_NAVAIDS_TYPE TWR AIRPORT_AIRPORT_NAVAIDS_NAME TWR AIRPORT_AIRPORT_NAVAIDS_FREQ 119 MHZ

 AIRPORT_AIRPORT_NAVAIDS



Copyright © 2005-2021 - Virtuel Air Alsace - Tous droits réservés